Jartai, China
Current Conditions -  °F | °C
As of 5:00 AM on Sunday 26 Oct 2014 (Local Time) from ZLLL Reporting Station
Clear Clear  
Wind Chill: 31°   Ceiling: Unl
Heat Index: 37°   Visibility: 6mi
Dew Point: 32°   Wind: 9mph
Humidity: 81%   Direction: 340°NNW
Pressure: 30.21"   Gusts: NA
Location:  39.78°N, 105.75°E
Report Text: ZLLL 252100Z 34004MPS CAVOK 03/00 Q1023 NOSIG
Loading
Personal Weather Stations






























Interactive Weather Map
Tropical Storm Tracking
New forecast layout! Learn more

10-Day Weather Forecast

Advertisements
Track Severe Weather on mobile